Time;durP1;ratioP1;P1;durP2;ratioP2;P2;SDS_P1;SDS_P2;PMS_P1;PMS_P2;Temp;Humidity;BMP_temperature;BMP_pressure;BME280_temperature;BME280_humidity;BME280_pressure;Samples;Min_cycle;Max_cycle;Signal;HPM_P1;HPM_P2
2023/01/21 00:03:23;;;;;;;17.38;14.95;;;;;;;2.83;85.22;100719.16;10323545;28;20095;-67
2023/01/21 00:08:25;;;;;;;16.35;14.65;;;;;;;2.84;85.23;100726.13;10333053;28;20116;-68
2023/01/21 00:13:27;;;;;;;18.73;15.23;;;;;;;2.80;84.80;100714.03;10323060;28;20627;-66
2023/01/21 00:18:29;;;;;;;20.25;16.13;;;;;;;2.93;84.28;100732.78;10321459;28;20053;-67
2023/01/21 00:23:30;;;;;;;18.15;15.38;;;;;;;2.86;84.15;100736.59;10319292;28;20050;-67
2023/01/21 00:28:35;;;;;;;17.08;15.13;;;;;;;2.88;84.02;100743.47;10321918;28;20386;-66
2023/01/21 00:33:37;;;;;;;17.60;14.87;;;;;;;2.73;83.71;100733.59;10321824;28;20053;-68
2023/01/21 00:38:39;;;;;;;18.33;14.40;;;;;;;2.69;83.87;100753.91;10319218;28;20054;-66
2023/01/21 00:43:41;;;;;;;17.50;15.40;;;;;;;2.70;83.64;100749.47;10319583;28;20515;-66
2023/01/21 00:48:42;;;;;;;19.88;14.05;;;;;;;2.67;83.14;100750.44;10321149;28;20058;-66
2023/01/21 00:53:44;;;;;;;16.23;13.73;;;;;;;2.63;83.27;100764.66;10316766;28;20050;-67
2023/01/21 00:58:45;;;;;;;15.70;13.93;;;;;;;2.56;83.31;100755.28;10321576;28;20174;-66
2023/01/21 01:03:48;;;;;;;16.40;14.55;;;;;;;2.65;82.95;100778.59;10320455;28;20056;-68
2023/01/21 01:08:50;;;;;;;15.52;13.48;;;;;;;2.53;83.15;100773.81;10319461;28;20069;-68
2023/01/21 01:13:53;;;;;;;16.85;13.88;;;;;;;2.52;82.56;100798.38;10338865;28;20050;-71
2023/01/21 01:18:55;;;;;;;15.70;13.15;;;;;;;2.22;81.90;100756.56;10318471;28;20093;-68
2023/01/21 01:23:59;;;;;;;16.00;13.40;;;;;;;2.28;82.12;100778.22;10317448;28;20054;-67
2023/01/21 01:29:02;;;;;;;17.30;13.88;;;;;;;2.40;81.34;100816.31;10316927;28;20062;-67
2023/01/21 01:34:04;;;;;;;14.77;13.05;;;;;;;2.20;81.37;100824.09;10318861;28;20516;-66
2023/01/21 01:39:06;;;;;;;15.77;13.32;;;;;;;2.21;81.21;100828.44;10331497;28;20064;-66
2023/01/21 01:44:46;;;;;;;17.38;13.32;;;;;;;2.12;81.42;100843.59;10318274;28;20572;-67
2023/01/21 01:49:47;;;;;;;17.38;13.63;;;;;;;2.04;81.16;100856.16;10322598;28;20052;-67
2023/01/21 01:54:52;;;;;;;18.75;15.00;;;;;;;1.88;80.37;100841.84;10317979;28;20054;-68
2023/01/21 01:59:54;;;;;;;17.13;14.30;;;;;;;1.82;79.64;100855.16;10319700;28;20116;-68
2023/01/21 02:05:03;;;;;;;19.83;15.75;;;;;;;1.67;79.24;100849.56;10332450;28;20145;-65
2023/01/21 02:10:07;;;;;;;17.08;14.25;;;;;;;1.64;78.84;100873.28;10319162;28;20292;-68
2023/01/21 02:15:09;;;;;;;18.40;14.77;;;;;;;1.54;78.45;100883.22;10318658;28;20125;-67
2023/01/21 02:20:45;;;;;;;17.63;13.82;;;;;;;1.38;78.01;100872.38;10321390;28;20062;-67
2023/01/21 02:25:58;;;;;;;;;;;;;;;1.42;78.04;100886.25;10322734;28;20418;-68
2023/01/21 02:31:14;;;;;;;18.05;14.68;;;;;;;1.36;77.72;100889.91;10320852;28;20412;-67
2023/01/21 02:36:31;;;;;;;17.45;14.27;;;;;;;1.33;77.59;100895.25;10318232;28;20050;-66
2023/01/21 02:42:06;;;;;;;19.00;14.68;;;;;;;1.22;76.95;100897.38;10318928;28;20281;-65
2023/01/21 02:47:08;;;;;;;17.77;14.30;;;;;;;1.09;76.86;100902.13;10314049;28;20066;-69
2023/01/21 02:52:20;;;;;;;18.25;14.52;;;;;;;1.06;77.63;100923.22;10318255;28;20054;-65
2023/01/21 02:57:28;;;;;;;19.33;14.60;;;;;;;0.93;77.11;100922.72;10316311;28;20058;-66
2023/01/21 03:02:50;;;;;;;20.42;15.35;;;;;;;0.78;77.69;100920.53;10308420;28;20057;-66
2023/01/21 03:08:03;;;;;;;17.58;14.23;;;;;;;0.83;78.22;100939.63;10319698;28;20519;-68
2023/01/21 03:13:10;;;;;;;17.65;14.20;;;;;;;0.92;78.10;100941.13;10315662;28;20136;-65
2023/01/21 03:18:21;;;;;;;19.08;14.73;;;;;;;0.76;77.34;100945.94;10329073;28;20520;-66
2023/01/21 03:23:28;;;;;;;18.23;14.07;;;;;;;0.59;77.26;100935.94;10344644;28;20046;-67
2023/01/21 03:28:33;;;;;;;18.17;13.77;;;;;;;0.56;76.75;100930.81;10334842;28;20048;-67
2023/01/21 03:33:38;;;;;;;18.00;13.60;;;;;;;0.68;77.23;100960.13;10327314;28;20097;-66
2023/01/21 03:38:46;;;;;;;18.50;14.52;;;;;;;0.55;77.52;100965.75;10344265;28;20050;-66
2023/01/21 03:43:48;;;;;;;18.33;14.15;;;;;;;0.53;76.78;100976.28;10337613;28;20073;-64
2023/01/21 03:48:56;;;;;;;19.65;14.18;;;;;;;0.33;77.34;100961.97;10333281;28;20057;-68
2023/01/21 03:53:58;;;;;;;18.75;14.55;;;;;;;0.43;76.96;100969.56;10344483;28;20110;-65
2023/01/21 03:59:00;;;;;;;17.63;14.00;;;;;;;0.22;77.26;100950.03;10329710;28;20520;-66
2023/01/21 04:04:01;;;;;;;17.60;12.73;;;;;;;0.28;77.07;100973.44;10326982;28;20140;-67
2023/01/21 04:09:03;;;;;;;17.55;13.85;;;;;;;0.39;76.65;100978.41;10328322;28;20085;-67
2023/01/21 04:14:05;;;;;;;17.92;14.15;;;;;;;0.34;76.68;100975.91;10332373;28;20096;-67
2023/01/21 04:19:06;;;;;;;18.45;14.48;;;;;;;0.19;76.84;100966.69;10333737;28;20136;-69
2023/01/21 04:24:08;;;;;;;17.15;13.52;;;;;;;0.26;77.36;100989.19;10329881;28;20097;-67
2023/01/21 04:29:09;;;;;;;18.08;13.30;;;;;;;0.17;76.73;100984.22;10328996;28;20056;-66
2023/01/21 04:34:11;;;;;;;17.45;13.70;;;;;;;0.15;77.35;100980.75;10325083;28;20080;-67
2023/01/21 04:39:12;;;;;;;20.33;15.02;;;;;;;0.11;77.79;100987.84;10329349;28;20046;-67
2023/01/21 04:44:13;;;;;;;17.92;13.98;;;;;;;0.10;76.95;100995.72;10327472;28;20243;-67
2023/01/21 04:49:15;;;;;;;18.20;14.20;;;;;;;0.01;77.79;100999.44;10326299;28;20073;-65
2023/01/21 04:54:16;;;;;;;18.95;13.80;;;;;;;-0.21;77.77;100963.31;10325093;28;20061;-67
2023/01/21 04:59:18;;;;;;;21.48;15.23;;;;;;;-0.08;77.90;100983.97;10320723;28;20069;-67
2023/01/21 05:04:19;;;;;;;19.85;15.95;;;;;;;-0.09;77.58;101009.28;10325051;28;20058;-65
2023/01/21 05:09:20;;;;;;;20.00;16.40;;;;;;;-0.13;78.10;100988.47;10319763;28;20500;-66
2023/01/21 05:14:22;;;;;;;20.13;15.40;;;;;;;0.14;77.26;101019.16;10319493;28;20066;-67
2023/01/21 05:19:23;;;;;;;22.67;16.83;;;;;;;0.09;77.94;101025.41;10319062;28;20098;-68
2023/01/21 05:24:25;;;;;;;22.23;14.85;;;;;;;-0.08;77.50;101000.50;10323611;28;20226;-66
2023/01/21 05:29:26;;;;;;;19.83;15.27;;;;;;;0.03;78.15;101020.34;10326499;28;20489;-67
2023/01/21 05:34:28;;;;;;;20.85;16.27;;;;;;;-0.14;77.84;101024.22;10317557;28;20092;-68
2023/01/21 05:39:29;;;;;;;21.20;16.15;;;;;;;-0.20;78.33;101017.38;10323395;28;20080;-69
2023/01/21 05:44:31;;;;;;;21.45;15.50;;;;;;;-0.24;78.19;101009.63;10321716;28;20423;-66
2023/01/21 05:49:32;;;;;;;18.48;15.35;;;;;;;-0.15;77.88;101024.25;10322581;28;20058;-67
2023/01/21 05:54:33;;;;;;;24.55;18.27;;;;;;;-0.05;77.67;101036.22;10328101;28;20209;-66
2023/01/21 05:59:35;;;;;;;22.85;16.02;;;;;;;-0.30;78.35;101025.47;10323348;28;20513;-67
2023/01/21 06:04:36;;;;;;;21.27;16.67;;;;;;;-0.37;78.78;101022.16;10354327;28;20117;-69
2023/01/21 06:09:38;;;;;;;21.90;15.50;;;;;;;-0.42;78.83;101024.88;10327698;28;20050;-67
2023/01/21 06:14:39;;;;;;;20.65;16.25;;;;;;;-0.37;79.10;101046.53;10322971;28;20054;-67
2023/01/21 06:19:41;;;;;;;19.67;14.43;;;;;;;-0.48;79.62;101050.28;10328596;28;20084;-66
2023/01/21 06:24:43;;;;;;;21.88;16.80;;;;;;;-0.62;80.05;101046.22;10326264;28;20054;-67
2023/01/21 06:29:45;;;;;;;18.55;15.68;;;;;;;-0.53;79.44;101066.09;10328259;28;20117;-67
2023/01/21 06:34:47;;;;;;;20.15;15.48;;;;;;;-0.53;79.57;101068.69;10325046;28;20129;-69
2023/01/21 06:39:48;;;;;;;19.17;15.25;;;;;;;-0.56;79.69;101076.63;10324557;28;20547;-67
2023/01/21 06:44:50;;;;;;;18.75;14.77;;;;;;;-0.54;79.49;101080.06;10326910;28;20062;-67
2023/01/21 06:49:51;;;;;;;20.20;15.50;;;;;;;-0.77;79.95;101063.09;10325130;28;20444;-69
2023/01/21 06:54:53;;;;;;;19.25;14.40;;;;;;;-0.55;78.38;101088.81;10327315;28;20049;-64
2023/01/21 06:59:56;;;;;;;20.67;15.07;;;;;;;-0.46;78.15;101088.59;10324776;28;20081;-67
2023/01/21 07:04:58;;;;;;;23.38;17.15;;;;;;;-0.50;77.61;101088.72;10313840;28;20484;-66
2023/01/21 07:10:00;;;;;;;21.08;15.48;;;;;;;-0.47;77.45;101113.03;10310638;28;20419;-67
2023/01/21 07:15:01;;;;;;;22.10;16.05;;;;;;;-0.86;77.91;101062.44;10317302;28;20057;-67
2023/01/21 07:20:03;;;;;;;19.80;15.68;;;;;;;-0.67;77.55;101100.38;10314614;28;20572;-68
2023/01/21 07:25:06;;;;;;;21.45;15.18;;;;;;;-0.60;77.19;101107.22;10313167;28;20193;-67
2023/01/21 07:30:15;;;;;;;19.35;14.70;;;;;;;-0.47;77.61;101127.88;10309455;28;20347;-65
2023/01/21 07:35:17;;;;;;;22.55;16.15;;;;;;;-0.62;77.74;101127.28;10312197;28;20164;-67
2023/01/21 07:40:19;;;;;;;20.73;15.05;;;;;;;-0.52;77.21;101137.59;10313017;28;20049;-67
2023/01/21 07:45:21;;;;;;;20.30;15.43;;;;;;;-0.51;77.40;101128.81;10316120;28;20056;-68
2023/01/21 07:50:23;;;;;;;21.40;15.60;;;;;;;-0.37;77.04;101145.97;10320046;28;20100;-68
2023/01/21 07:55:25;;;;;;;21.42;15.93;;;;;;;-0.36;76.53;101126.75;10320426;28;20417;-70
2023/01/21 08:00:28;;;;;;;20.42;14.48;;;;;;;-0.12;76.35;101153.31;10313734;28;20050;-67
2023/01/21 08:05:29;;;;;;;19.17;13.93;;;;;;;-0.05;76.01;101156.63;10324151;28;20062;-69
2023/01/21 08:10:30;;;;;;;20.20;14.35;;;;;;;-0.11;75.84;101141.06;10323876;28;20511;-67
2023/01/21 08:15:32;;;;;;;19.52;14.38;;;;;;;-0.11;75.71;101139.31;10324342;28;20475;-68
2023/01/21 08:20:33;;;;;;;18.55;13.65;;;;;;;0.03;75.50;101159.06;10321829;28;20061;-69
2023/01/21 08:25:35;;;;;;;18.10;14.20;;;;;;;0.10;75.61;101158.06;10320174;28;20057;-68
2023/01/21 08:30:37;;;;;;;16.80;13.48;;;;;;;0.28;74.75;101159.38;10351932;28;20058;-66
2023/01/21 08:35:38;;;;;;;16.60;12.30;;;;;;;0.46;73.62;101158.94;10327257;28;20117;-68
2023/01/21 08:40:41;;;;;;;16.92;12.93;;;;;;;0.54;73.19;101150.88;10325912;28;20054;-69
2023/01/21 08:45:42;;;;;;;18.00;12.93;;;;;;;0.76;73.01;101171.34;10324614;28;20057;-68
2023/01/21 08:50:43;;;;;;;16.42;11.73;;;;;;;0.94;71.87;101180.50;10329275;28;20065;-67
2023/01/21 08:55:46;;;;;;;15.88;11.40;;;;;;;0.90;71.76;101184.94;10329353;28;20062;-69
2023/01/21 09:00:50;;;;;;;16.42;12.15;;;;;;;1.22;70.92;101196.38;10322679;28;20058;-69
2023/01/21 09:05:51;;;;;;;16.63;12.45;;;;;;;1.30;70.65;101199.66;10324150;28;20058;-68
2023/01/21 09:11:01;;;;;;;15.43;11.52;;;;;;;1.46;69.72;101204.50;10319656;28;20621;-68
2023/01/21 09:16:08;;;;;;;15.02;11.10;;;;;;;1.52;69.68;101210.44;10317357;28;20053;-68
2023/01/21 09:21:10;;;;;;;15.45;11.65;;;;;;;1.54;69.15;101205.13;10338703;28;20165;-67
2023/01/21 09:26:17;;;;;;;15.00;10.27;;;;;;;1.69;69.18;101212.56;10326897;28;20075;-68
2023/01/21 09:31:23;;;;;;;14.63;11.07;;;;;;;1.82;68.83;101217.47;10323937;28;20047;-70
2023/01/21 09:36:27;;;;;;;12.55;9.43;;;;;;;1.58;68.28;101204.16;10327109;28;20053;-68
2023/01/21 09:41:37;;;;;;;13.05;9.85;;;;;;;1.94;68.14;101231.13;10326928;28;20110;-68
2023/01/21 09:46:41;;;;;;;15.05;11.07;;;;;;;2.10;67.77;101234.16;10320434;28;20188;-70
2023/01/21 09:51:53;;;;;;;13.80;10.53;;;;;;;2.29;66.77;101234.44;10317152;28;20076;-68
2023/01/21 09:57:14;;;;;;;13.65;10.13;;;;;;;2.33;66.44;101240.50;10314064;28;20061;-67
2023/01/21 10:02:27;;;;;;;13.20;9.75;;;;;;;2.63;66.17;101236.06;10319720;28;20152;-68
2023/01/21 10:07:36;;;;;;;13.93;10.88;;;;;;;3.25;64.00;101239.28;10313547;28;20042;-67
2023/01/21 10:12:56;;;;;;;13.45;10.50;;;;;;;3.48;63.63;101233.25;10311901;28;20734;-69
2023/01/21 10:18:05;;;;;;;12.90;10.70;;;;;;;3.84;61.59;101250.38;10315975;28;20551;-67
2023/01/21 10:23:13;;;;;;;14.38;10.80;;;;;;;3.97;61.53;101235.84;10311266;28;20137;-68
2023/01/21 10:28:24;;;;;;;13.75;10.43;;;;;;;3.86;61.04;101244.16;10313876;28;20058;-70
2023/01/21 10:33:29;;;;;;;12.88;9.85;;;;;;;3.79;61.21;101211.06;10319125;28;20081;-68
2023/01/21 10:38:42;;;;;;;12.95;10.98;;;;;;;3.25;63.23;101215.59;10316565;28;20054;-69
2023/01/21 10:43:57;;;;;;;15.68;11.43;;;;;;;2.78;65.06;101232.06;10318225;28;20085;-69
2023/01/21 10:49:36;;;;;;;13.13;11.60;;;;;;;2.65;66.75;101228.13;10316198;28;20081;-68
2023/01/21 10:54:52;;;;;;;15.63;12.98;;;;;;;2.61;67.38;101242.25;10320950;28;20050;-71
2023/01/21 10:59:58;;;;;;;14.95;12.45;;;;;;;2.22;68.43;101226.81;10322624;28;20042;-68
2023/01/21 11:05:03;;;;;;;17.10;12.20;;;;;;;2.12;68.73;101221.84;10320022;28;20289;-67
2023/01/21 11:10:06;;;;;;;15.48;10.88;;;;;;;2.07;69.04;101244.75;10315735;28;20417;-69
2023/01/21 11:15:17;;;;;;;12.70;11.35;;;;;;;1.92;69.76;101229.44;10315834;28;20077;-69
2023/01/21 11:20:40;;;;;;;12.10;10.75;;;;;;;1.89;70.50;101240.91;10318046;28;21296;-69
2023/01/21 11:25:41;;;;;;;13.40;10.70;;;;;;;2.06;69.37;101237.78;10318022;28;20404;-68
2023/01/21 11:30:43;;;;;;;16.83;11.57;;;;;;;1.80;69.98;101249.00;10319057;28;20121;-69
2023/01/21 11:35:57;;;;;;;11.88;9.95;;;;;;;1.86;70.34;101253.25;10321328;28;20129;-69
2023/01/21 11:41:02;;;;;;;12.48;10.95;;;;;;;1.90;70.53;101255.72;10327286;28;20041;-70
2023/01/21 11:46:25;;;;;;;12.15;10.38;;;;;;;1.97;69.66;101242.44;10324043;28;20132;-71
2023/01/21 11:51:26;;;;;;;12.02;8.95;;;;;;;2.21;68.44;101244.34;10323124;28;20034;-72
2023/01/21 11:56:28;;;;;;;11.00;9.35;;;;;;;2.40;68.13;101247.28;10324453;28;20140;-70
2023/01/21 12:01:29;;;;;;;9.13;8.18;;;;;;;2.48;67.13;101260.19;10343819;28;20567;-70
2023/01/21 12:06:32;;;;;;;9.10;7.88;;;;;;;2.22;67.79;101242.56;10331556;28;20054;-68
2023/01/21 12:11:36;;;;;;;8.45;7.53;;;;;;;2.16;68.17;101258.53;10326120;28;20563;-68
2023/01/21 12:17:04;;;;;;;9.95;6.97;;;;;;;2.10;68.01;101222.78;10333180;28;20136;-70
2023/01/21 12:22:30;;;;;;;7.90;6.60;;;;;;;2.16;67.88;101242.75;10324364;28;20061;-68
2023/01/21 12:28:04;;;;;;;9.55;7.30;;;;;;;2.04;68.11;101228.22;10319519;28;20077;-71
2023/01/21 12:33:17;;;;;;;5.77;5.03;;;;;;;2.23;67.79;101250.41;10326742;28;20057;-69
2023/01/21 12:38:31;;;;;;;9.25;7.57;;;;;;;2.12;68.91;101250.72;10329727;28;20130;-68
2023/01/21 12:43:42;;;;;;;10.50;7.77;;;;;;;2.25;68.38;101248.63;10324852;28;20448;-70
2023/01/21 12:49:00;;;;;;;8.82;7.80;;;;;;;2.43;68.06;101244.56;10318448;28;20042;-71
2023/01/21 12:54:37;;;;;;;8.48;7.43;;;;;;;2.46;67.23;101246.22;10325398;28;20142;-71
2023/01/21 12:59:46;;;;;;;9.07;7.50;;;;;;;2.68;67.14;101246.41;10321725;28;20711;-71
2023/01/21 13:04:54;;;;;;;7.30;6.60;;;;;;;3.28;65.85;101238.31;10320049;28;20135;-67
2023/01/21 13:10:14;;;;;;;8.55;7.20;;;;;;;5.61;57.41;101245.94;10314706;28;20089;-70
2023/01/21 13:15:21;;;;;;;7.00;5.95;;;;;;;7.33;53.46;101236.09;10313426;28;20069;-67
2023/01/21 13:20:23;;;;;;;6.35;5.25;;;;;;;8.39;49.05;101232.25;10317601;28;20048;-65
2023/01/21 13:25:35;;;;;;;7.75;6.95;;;;;;;9.72;45.19;101235.19;10337511;28;20046;-67
2023/01/21 13:31:07;;;;;;;7.03;6.40;;;;;;;10.09;43.80;101243.53;10352430;28;20146;-68
2023/01/21 13:36:15;;;;;;;5.78;5.28;;;;;;;10.98;41.47;101206.81;10348816;28;20596;-69
2023/01/21 13:41:43;;;;;;;5.68;5.07;;;;;;;11.99;40.06;101229.19;10325132;28;20092;-66
2023/01/21 13:47:03;;;;;;;5.28;4.78;;;;;;;9.90;43.48;101228.72;10324415;28;20176;-68
2023/01/21 13:52:16;;;;;;;6.95;5.85;;;;;;;7.33;48.84;101235.25;10315261;28;20057;-68
2023/01/21 13:57:51;;;;;;;6.43;5.55;;;;;;;5.65;53.21;101236.97;10316267;28;20115;-64
2023/01/21 14:03:15;;;;;;;7.15;5.75;;;;;;;4.93;56.91;101238.25;10322662;28;20050;-65
2023/01/21 14:08:23;;;;;;;6.97;5.60;;;;;;;4.45;58.74;101247.22;10317786;28;20077;-66
2023/01/21 14:14:15;;;;;;;7.65;6.00;;;;;;;4.30;60.40;101242.56;10333580;28;20053;-66
2023/01/21 14:19:40;;;;;;;5.35;4.85;;;;;;;3.89;59.46;101241.41;10315265;28;20914;-67
2023/01/21 14:25:13;;;;;;;6.72;5.95;;;;;;;3.85;60.20;101252.13;10326354;28;20741;-66
2023/01/21 14:30:23;;;;;;;8.63;5.20;;;;;;;3.58;61.08;101243.44;10325131;28;20053;-70
2023/01/21 14:35:34;;;;;;;6.07;5.05;;;;;;;3.44;61.61;101238.63;10330491;28;20053;-68
2023/01/21 14:40:46;;;;;;;6.15;5.55;;;;;;;3.23;62.88;101242.88;10324882;28;20748;-68
2023/01/21 14:45:54;;;;;;;7.35;5.97;;;;;;;3.08;63.13;101224.09;10323399;28;20123;-65
2023/01/21 14:51:04;;;;;;;5.93;5.13;;;;;;;3.04;63.95;101254.03;10323090;28;20073;-68
2023/01/21 14:56:18;;;;;;;6.47;5.10;;;;;;;3.15;63.51;101251.91;10327538;28;20077;-67
2023/01/21 15:01:26;;;;;;;6.53;5.38;;;;;;;3.04;63.44;101253.16;10319938;28;20038;-68
2023/01/21 15:06:28;;;;;;;7.05;5.55;;;;;;;3.04;64.49;101251.38;10325308;28;20049;-67
2023/01/21 15:11:38;;;;;;;7.03;5.53;;;;;;;3.10;63.69;101253.81;10320460;28;20054;-68
2023/01/21 15:16:42;;;;;;;5.38;4.88;;;;;;;2.94;64.15;101253.47;10321389;28;20200;-68
2023/01/21 15:21:58;;;;;;;7.75;5.38;;;;;;;2.97;64.06;101258.63;10319397;28;20054;-69
2023/01/21 15:27:25;;;;;;;5.47;4.68;;;;;;;2.95;64.74;101254.34;10315041;28;20042;-65
2023/01/21 15:32:35;;;;;;;5.60;4.90;;;;;;;2.81;65.35;101266.16;10334267;28;20064;-66
2023/01/21 15:37:40;;;;;;;6.75;5.10;;;;;;;2.85;64.59;101272.16;10313929;28;20047;-70
2023/01/21 15:42:56;;;;;;;6.53;5.50;;;;;;;2.80;65.11;101271.47;10319019;28;20053;-67
2023/01/21 15:48:43;;;;;;;6.88;5.45;;;;;;;2.89;64.93;101272.94;10317994;28;20140;-66
2023/01/21 15:54:14;;;;;;;7.63;5.57;;;;;;;2.68;65.55;101267.44;10319159;28;20120;-68
2023/01/21 15:59:25;;;;;;;6.75;5.57;;;;;;;2.57;66.37;101275.69;10310559;28;20160;-65
2023/01/21 16:04:39;;;;;;;6.60;5.88;;;;;;;2.56;66.44;101280.97;10319085;28;20054;-69
2023/01/21 16:10:15;;;;;;;7.57;5.95;;;;;;;2.60;66.75;101290.50;10319145;28;20708;-70
2023/01/21 16:15:19;;;;;;;7.03;5.53;;;;;;;2.49;66.85;101296.06;10307305;28;20046;-65
2023/01/21 16:20:21;;;;;;;6.77;5.90;;;;;;;2.53;66.98;101286.34;10314071;28;20146;-67
2023/01/21 16:25:24;;;;;;;6.53;5.60;;;;;;;2.23;67.58;101278.47;10323802;28;20129;-70
2023/01/21 16:30:29;;;;;;;10.25;6.50;;;;;;;2.41;67.33;101290.19;10324030;28;20152;-65
2023/01/21 16:35:48;;;;;;;;;;;;;;;2.52;67.63;101282.81;10323255;28;20145;-68
2023/01/21 16:41:10;;;;;;;6.97;5.82;;;;;;;2.64;67.11;101286.84;10335167;28;19979;-67
2023/01/21 16:46:14;;;;;;;6.68;5.97;;;;;;;2.57;67.13;101278.31;10319765;28;20046;-63
2023/01/21 16:51:24;;;;;;;9.35;7.88;;;;;;;2.48;67.45;101279.44;10317716;28;20057;-65
2023/01/21 16:56:28;;;;;;;8.63;7.40;;;;;;;2.48;67.75;101271.56;10321935;28;20602;-67
2023/01/21 17:01:30;;;;;;;9.50;7.68;;;;;;;2.44;67.85;101259.41;10332869;28;22627;-65
2023/01/21 17:06:32;;;;;;;7.60;6.75;;;;;;;2.20;68.69;101254.91;10310210;28;20423;-66
2023/01/21 17:11:35;;;;;;;8.60;7.07;;;;;;;2.25;68.99;101263.50;10315078;28;20522;-67
2023/01/21 17:16:39;;;;;;;7.55;6.65;;;;;;;2.38;68.47;101258.75;10318127;28;20132;-67
2023/01/21 17:21:48;;;;;;;7.38;5.65;;;;;;;1.92;69.81;101255.69;10317850;28;20054;-67
2023/01/21 17:26:54;;;;;;;8.70;6.82;;;;;;;2.04;69.88;101263.25;10318414;28;20188;-66
2023/01/21 17:32:00;;;;;;;8.43;6.43;;;;;;;2.26;69.16;101270.47;10311544;28;20695;-66
2023/01/21 17:37:44;;;;;;;9.20;7.28;;;;;;;2.31;68.52;101276.44;10312389;28;20049;-65
2023/01/21 17:42:45;;;;;;;9.77;7.32;;;;;;;2.30;68.65;101277.38;10312952;28;20920;-64
2023/01/21 17:47:50;;;;;;;7.80;6.72;;;;;;;2.19;68.58;101277.69;10314695;28;20111;-67
2023/01/21 17:53:19;;;;;;;7.57;6.78;;;;;;;2.00;69.23;101269.47;10331723;28;20053;-68
2023/01/21 17:58:52;;;;;;;9.85;6.80;;;;;;;2.10;68.47;101263.06;10319275;28;20053;-66
2023/01/21 18:03:53;;;;;;;7.72;6.05;;;;;;;2.05;69.03;101267.56;10322280;28;21174;-68
2023/01/21 18:08:56;;;;;;;7.00;6.15;;;;;;;2.09;68.70;101263.97;10322915;28;20049;-66
2023/01/21 18:13:58;;;;;;;9.70;7.50;;;;;;;2.06;68.71;101263.19;10325916;28;20803;-67
2023/01/21 18:18:59;;;;;;;9.32;7.28;;;;;;;2.21;68.85;101268.00;10324365;28;20714;-66
2023/01/21 18:24:00;;;;;;;7.60;6.38;;;;;;;2.25;68.60;101260.88;10318832;28;20064;-66
2023/01/21 18:29:02;;;;;;;7.15;6.40;;;;;;;2.19;68.52;101248.81;10314376;28;20351;-65
2023/01/21 18:34:05;;;;;;;7.15;5.80;;;;;;;1.96;69.17;101246.81;10312850;28;20057;-67
2023/01/21 18:39:16;;;;;;;7.78;6.07;;;;;;;2.30;68.37;101280.00;10316135;28;22245;-67
2023/01/21 18:44:17;;;;;;;7.32;6.03;;;;;;;2.10;68.79;101260.44;10312440;28;20068;-64
2023/01/21 18:49:20;;;;;;;6.47;5.50;;;;;;;2.29;67.98;101278.28;10312041;28;21460;-66
2023/01/21 18:54:21;;;;;;;7.63;6.40;;;;;;;2.10;68.90;101275.31;10311943;28;20050;-64
2023/01/21 18:59:22;;;;;;;7.25;5.93;;;;;;;2.33;68.87;101274.66;10312169;28;20077;-66
2023/01/21 19:04:24;;;;;;;8.85;6.35;;;;;;;2.31;67.81;101252.81;10315385;28;20136;-69
2023/01/21 19:09:26;;;;;;;7.28;5.95;;;;;;;2.31;68.34;101279.06;10320768;28;20136;-67
2023/01/21 19:14:27;;;;;;;8.18;5.80;;;;;;;2.31;69.28;101279.06;10314405;28;20089;-67
2023/01/21 19:19:29;;;;;;;7.50;5.75;;;;;;;2.48;68.52;101271.56;10318865;28;20054;-68
2023/01/21 19:24:30;;;;;;;6.55;5.90;;;;;;;2.51;67.90;101264.47;10308935;28;20061;-69
2023/01/21 19:29:32;;;;;;;6.07;5.00;;;;;;;2.53;67.67;101265.31;10319548;28;20060;-66
2023/01/21 19:34:34;;;;;;;7.30;5.32;;;;;;;2.58;66.84;101255.50;10313876;28;20053;-69
2023/01/21 19:39:35;;;;;;;6.95;5.25;;;;;;;2.59;66.55;101246.72;10311709;28;20069;-66
2023/01/21 19:44:38;;;;;;;7.85;5.32;;;;;;;2.66;66.76;101258.75;10304377;28;20187;-65
2023/01/21 19:49:39;;;;;;;8.98;6.30;;;;;;;2.64;66.58;101244.78;10307847;28;20535;-67
2023/01/21 19:54:41;;;;;;;7.88;5.78;;;;;;;2.40;67.33;101239.41;10311657;28;20492;-67
2023/01/21 19:59:43;;;;;;;7.22;6.03;;;;;;;2.55;67.03;101247.72;10316491;28;20099;-66
2023/01/21 20:04:44;;;;;;;7.55;5.45;;;;;;;2.62;66.63;101254.50;10323476;28;20073;-68
2023/01/21 20:09:46;;;;;;;9.90;5.55;;;;;;;2.15;67.80;101251.53;10323083;28;20054;-67
2023/01/21 20:14:47;;;;;;;8.20;5.82;;;;;;;2.44;67.46;101254.16;10326979;28;20168;-66
2023/01/21 20:19:49;;;;;;;8.23;6.22;;;;;;;2.64;66.33;101253.56;10322938;28;20064;-68
2023/01/21 20:24:50;;;;;;;7.97;5.60;;;;;;;2.79;66.24;101252.22;10337591;28;20066;-68
2023/01/21 20:29:52;;;;;;;8.70;5.30;;;;;;;2.79;65.74;101249.56;10342670;28;20072;-69
2023/01/21 20:35:15;;;;;;;6.57;5.68;;;;;;;2.71;66.18;101246.31;10318586;28;20058;-68
2023/01/21 20:40:28;;;;;;;8.52;5.55;;;;;;;2.78;66.01;101237.31;10322923;28;20049;-68
2023/01/21 20:45:35;;;;;;;9.95;6.47;;;;;;;2.71;65.92;101229.69;10333984;28;20088;-66
2023/01/21 20:50:37;;;;;;;8.07;5.97;;;;;;;2.78;66.24;101229.44;10317420;28;20667;-68
2023/01/21 20:55:39;;;;;;;9.70;5.78;;;;;;;2.78;66.12;101229.44;10315814;28;20133;-65
2023/01/21 21:00:42;;;;;;;9.82;7.03;;;;;;;2.60;66.12;101194.09;10319818;28;20184;-66
2023/01/21 21:05:47;;;;;;;7.50;6.32;;;;;;;2.80;66.03;101211.84;10321480;28;20058;-69
2023/01/21 21:10:51;;;;;;;7.45;6.20;;;;;;;2.87;65.93;101219.50;10317575;28;20131;-68
2023/01/21 21:15:53;;;;;;;6.95;6.13;;;;;;;2.75;65.83;101184.00;10318149;28;20519;-68
2023/01/21 21:20:54;;;;;;;9.65;6.80;;;;;;;2.93;66.83;101195.66;10308763;28;20050;-70
2023/01/21 21:25:55;;;;;;;7.50;6.15;;;;;;;2.60;69.23;101198.50;10314977;28;20253;-66
2023/01/21 21:30:59;;;;;;;7.85;6.60;;;;;;;2.51;71.86;101204.03;10317550;28;20539;-68
2023/01/21 21:36:00;;;;;;;10.70;6.82;;;;;;;2.38;73.20;101199.16;10320790;28;20065;-66
2023/01/21 21:43:30;;;;;;;9.82;7.05;;;;;;;2.36;73.56;101179.97;10315036;28;20057;-68
2023/01/21 21:51:44;;;;;;;10.15;8.05;;;;;;;2.30;74.67;101174.91;10319491;28;20104;-65
2023/01/21 21:56:48;;;;;;;10.25;7.57;;;;;;;2.52;73.97;101182.94;10319316;28;20365;-67
2023/01/21 22:01:49;;;;;;;11.80;8.23;;;;;;;2.45;74.35;101171.78;10317475;28;20631;-66
2023/01/21 22:06:51;;;;;;;9.80;8.18;;;;;;;2.39;74.73;101179.88;10314913;28;20259;-67
2023/01/21 22:11:52;;;;;;;9.85;7.70;;;;;;;2.32;74.82;101153.84;10316177;28;20056;-68
2023/01/21 22:16:54;;;;;;;11.35;8.35;;;;;;;2.32;75.17;101161.72;10317065;28;20080;-69
2023/01/21 22:21:55;;;;;;;9.52;7.22;;;;;;;2.52;74.46;101158.44;10317660;28;20054;-67
2023/01/21 22:26:56;;;;;;;9.90;7.82;;;;;;;2.39;75.08;101161.47;10330532;28;20058;-69
2023/01/21 22:31:58;;;;;;;10.57;8.10;;;;;;;2.30;74.80;101156.50;10317204;28;20725;-67
2023/01/21 22:36:59;;;;;;;10.60;8.25;;;;;;;2.41;74.80;101153.53;10316219;28;20050;-67
2023/01/21 22:42:02;;;;;;;10.13;8.43;;;;;;;2.39;74.63;101145.69;10313586;28;20141;-68
2023/01/21 22:47:04;;;;;;;8.80;7.57;;;;;;;2.17;75.66;101139.41;10315313;28;20049;-70
2023/01/21 22:52:05;;;;;;;9.23;6.90;;;;;;;2.11;75.63;101146.56;10331727;28;20216;-68
2023/01/21 22:57:07;;;;;;;9.15;6.90;;;;;;;2.15;75.25;101128.94;10332099;28;20132;-67
2023/01/21 23:02:08;;;;;;;10.10;7.40;;;;;;;2.02;75.54;101115.34;10316168;28;20069;-67
2023/01/21 23:07:09;;;;;;;8.55;6.55;;;;;;;2.09;75.37;101127.38;10324356;28;20064;-69
2023/01/21 23:12:17;;;;;;;9.75;8.00;;;;;;;2.08;75.15;101115.13;10326011;28;20049;-69
2023/01/21 23:17:18;;;;;;;9.88;7.05;;;;;;;2.19;75.78;101129.69;10316188;28;20048;-66
2023/01/21 23:22:20;;;;;;;8.23;6.45;;;;;;;2.23;75.49;101128.72;10315655;28;22273;-66
2023/01/21 23:27:21;;;;;;;8.63;7.30;;;;;;;2.08;75.76;101123.00;10318288;28;20077;-67
2023/01/21 23:32:23;;;;;;;10.60;7.13;;;;;;;2.19;75.70;101116.56;10315155;28;20073;-66
2023/01/21 23:37:24;;;;;;;8.40;7.07;;;;;;;1.98;75.94;101108.44;10325332;28;22297;-67